Terminal Aerodrome Forecast
Issued by NWS

Home | Current Version | Previous Version | Text Only | Print | Product List | Glossary On
Versions: 1 2 3 4 5 6 7 8 9 10 11 12 13 14 15
000
FTUS41 KBTV 061129
TAFMPV
TAF
KMPV 061129Z 0612/0712 VRB03KT 3SM BR SCT002
      TEMPO 0612/0613 1/2SM FG OVC001
     FM061300 17004KT P6SM SCT040
     FM070000 VRB03KT P6SM BKN250
     FM070800 VRB03KT 3SM BR SCT050 BKN150=

USA.gov is the U.S. government's official web portal to all federal, state and local government web resources and services.